createdAt,value
2018-04-21T00:00:56.269Z,28.70
2018-04-21T00:01:56.258Z,28.40
2018-04-21T00:02:56.240Z,28.20
2018-04-21T00:03:56.237Z,28.70
2018-04-21T00:04:56.275Z,28.30
2018-04-21T00:05:56.206Z,27.80
2018-04-21T00:06:56.192Z,27.90
2018-04-21T00:07:56.183Z,28.50
2018-04-21T00:08:56.176Z,28.30
2018-04-21T00:09:56.157Z,29.60
2018-04-21T00:10:56.150Z,28.80
2018-04-21T00:11:56.141Z,28.90
2018-04-21T00:12:56.122Z,30.30
2018-04-21T00:13:56.117Z,30.20
2018-04-21T00:14:56.096Z,31.10
2018-04-21T00:15:56.088Z,29.60
2018-04-21T00:16:56.084Z,30.30
2018-04-21T00:17:56.236Z,29.70
2018-04-21T00:18:56.052Z,32.40
2018-04-21T00:19:56.036Z,30.90
2018-04-21T00:20:56.029Z,29.30
2018-04-21T00:21:56.016Z,29.40
2018-04-21T00:22:56.001Z,30.00
2018-04-21T00:23:55.987Z,30.80
2018-04-21T00:24:55.978Z,30.00
2018-04-21T00:25:55.965Z,30.30
2018-04-21T00:26:55.950Z,30.40
2018-04-21T00:27:55.940Z,31.00
2018-04-21T00:28:55.929Z,31.40
2018-04-21T00:29:55.915Z,30.80
2018-04-21T00:30:55.916Z,30.70
2018-04-21T00:31:55.902Z,31.30
2018-04-21T00:32:55.879Z,32.20
2018-04-21T00:33:56.037Z,31.50
2018-04-21T00:34:55.856Z,31.90
2018-04-21T00:35:55.853Z,32.40
2018-04-21T00:36:55.887Z,32.60
2018-04-21T00:37:55.818Z,31.30
2018-04-21T00:38:55.808Z,30.20
2018-04-21T00:39:55.794Z,32.20
2018-04-21T00:40:55.782Z,30.70
2018-04-21T00:41:55.902Z,32.20
2018-04-21T00:42:55.766Z,31.60
2018-04-21T00:43:55.745Z,32.30
2018-04-21T00:44:55.735Z,33.30
2018-04-21T00:45:55.724Z,36.80
2018-04-21T00:46:55.712Z,34.50
2018-04-21T00:47:55.704Z,33.30
2018-04-21T00:48:55.683Z,34.10
2018-04-21T00:49:55.681Z,33.30
2018-04-21T00:50:55.676Z,33.80
2018-04-21T00:51:55.649Z,34.80
2018-04-21T00:52:55.643Z,34.70
2018-04-21T00:53:55.623Z,33.90
2018-04-21T00:54:55.610Z,35.00
2018-04-21T00:55:55.597Z,32.10
2018-04-21T00:56:55.585Z,32.30
2018-04-21T00:57:55.571Z,31.20
2018-04-21T00:58:55.568Z,34.10
2018-04-21T00:59:55.552Z,32.90
2018-04-21T01:00:55.537Z,32.20
2018-04-21T01:01:55.521Z,32.10
2018-04-21T01:02:55.512Z,32.50
2018-04-21T01:03:55.496Z,32.60
2018-04-21T01:04:55.486Z,32.40
2018-04-21T01:05:55.471Z,34.10
2018-04-21T01:06:55.461Z,33.50
2018-04-21T01:07:55.447Z,33.80
2018-04-21T01:08:55.436Z,34.80
2018-04-21T01:09:55.427Z,34.40
2018-04-21T01:10:55.412Z,34.10
2018-04-21T01:11:55.407Z,34.20
2018-04-21T01:12:55.389Z,34.20
2018-04-21T01:13:55.375Z,34.80
2018-04-21T01:14:55.360Z,33.20
2018-04-21T01:15:55.351Z,35.60
2018-04-21T01:16:55.334Z,34.00
2018-04-21T01:17:55.334Z,35.00
2018-04-21T01:18:55.311Z,34.90
2018-04-21T01:19:55.299Z,35.30
2018-04-21T01:20:55.295Z,35.20
2018-04-21T01:21:55.271Z,35.20
2018-04-21T01:22:55.259Z,33.90
2018-04-21T01:23:55.248Z,35.30
2018-04-21T01:24:55.233Z,35.50
2018-04-21T01:25:55.224Z,36.10
2018-04-21T01:26:55.208Z,37.20
2018-04-21T01:27:55.196Z,35.10
2018-04-21T01:28:55.182Z,36.60
2018-04-21T01:29:55.170Z,35.50
2018-04-21T01:30:55.158Z,36.70
2018-04-21T01:31:55.148Z,35.90
2018-04-21T01:32:55.132Z,37.00
2018-04-21T01:33:55.134Z,36.80
2018-04-21T01:34:55.118Z,38.70
2018-04-21T01:35:55.098Z,36.30
2018-04-21T01:36:55.088Z,36.70
2018-04-21T01:37:55.067Z,37.10
2018-04-21T01:38:55.057Z,36.90
2018-04-21T01:39:55.049Z,37.20
2018-04-21T01:40:55.036Z,38.40
2018-04-21T01:41:55.019Z,37.70
2018-04-21T01:42:55.006Z,38.00
2018-04-21T01:43:55.014Z,36.90
2018-04-21T01:44:54.979Z,38.50
2018-04-21T01:45:54.966Z,38.80
2018-04-21T01:46:54.956Z,40.30
2018-04-21T01:47:54.940Z,38.70
2018-04-21T01:48:54.927Z,38.90
2018-04-21T01:49:54.916Z,39.20
2018-04-21T01:50:54.923Z,39.70
2018-04-21T01:51:54.887Z,39.70
2018-04-21T01:52:54.884Z,39.80
2018-04-21T01:53:54.881Z,39.70
2018-04-21T01:54:54.850Z,39.50
2018-04-21T01:55:54.837Z,41.10
2018-04-21T01:56:54.875Z,39.60
2018-04-21T01:57:54.810Z,40.90
2018-04-21T01:58:54.795Z,41.60
2018-04-21T01:59:54.784Z,42.00
2018-04-21T02:00:54.784Z,41.00
2018-04-21T02:01:54.759Z,42.60
2018-04-21T02:02:54.746Z,41.30
2018-04-21T02:03:54.737Z,42.10
2018-04-21T02:04:54.718Z,43.40
2018-04-21T02:05:54.706Z,42.80
2018-04-21T02:06:54.698Z,43.20
2018-04-21T02:07:54.685Z,42.90
2018-04-21T02:08:54.669Z,43.40
2018-04-21T02:09:54.755Z,43.10
2018-04-21T02:10:54.643Z,43.10
2018-04-21T02:11:54.628Z,44.50
2018-04-21T02:12:54.619Z,44.50
2018-04-21T02:13:54.604Z,45.30
2018-04-21T02:14:54.596Z,45.70
2018-04-21T02:15:54.575Z,45.50
2018-04-21T02:16:54.563Z,47.30
2018-04-21T02:17:54.563Z,44.60
2018-04-21T02:18:54.543Z,46.10
2018-04-21T02:19:54.522Z,47.50
2018-04-21T02:20:54.512Z,47.80
2018-04-21T02:21:54.501Z,45.30
2018-04-21T02:22:54.485Z,46.30
2018-04-21T02:23:54.468Z,47.10
2018-04-21T02:24:54.457Z,47.80
2018-04-21T02:25:54.535Z,48.40
2018-04-21T02:26:54.431Z,48.00
2018-04-21T02:27:54.416Z,48.10
2018-04-21T02:28:54.401Z,48.20
2018-04-21T02:29:54.388Z,48.30
2018-04-21T02:30:54.376Z,49.50
2018-04-21T02:31:54.365Z,48.70
2018-04-21T02:32:54.351Z,50.20
2018-04-21T02:33:54.332Z,50.10
2018-04-21T02:34:54.321Z,49.60
2018-04-21T02:35:54.310Z,51.30
2018-04-21T02:36:54.305Z,50.00
2018-04-21T02:37:54.280Z,50.40
2018-04-21T02:38:54.271Z,51.50
2018-04-21T02:39:54.255Z,52.00
2018-04-21T02:40:54.239Z,52.00
2018-04-21T02:41:54.230Z,53.70
2018-04-21T02:42:54.215Z,53.60
2018-04-21T02:43:54.211Z,52.50
2018-04-21T02:44:54.202Z,51.90
2018-04-21T02:45:54.175Z,53.70
2018-04-21T02:46:54.179Z,55.40
2018-04-21T02:47:54.149Z,55.90
2018-04-21T02:48:54.143Z,55.90
2018-04-21T02:49:54.169Z,56.90
2018-04-21T02:50:54.109Z,55.90
2018-04-21T02:51:54.101Z,56.60
2018-04-21T02:52:54.080Z,56.30
2018-04-21T02:53:54.071Z,57.10
2018-04-21T02:54:54.048Z,58.50
2018-04-21T02:55:54.044Z,59.10
2018-04-21T02:56:54.026Z,57.40
2018-04-21T02:57:54.008Z,60.20
2018-04-21T02:58:53.997Z,58.90
2018-04-21T02:59:53.984Z,58.30
2018-04-21T03:00:53.973Z,60.90
2018-04-21T03:01:53.962Z,59.70
2018-04-21T03:02:53.978Z,59.60
2018-04-21T03:03:53.927Z,62.60
2018-04-21T03:04:53.920Z,61.90
2018-04-21T03:05:53.925Z,62.70
2018-04-21T03:06:53.894Z,60.60
2018-04-21T03:07:53.873Z,64.90
2018-04-21T03:08:53.870Z,62.00
2018-04-21T03:09:53.847Z,62.50
2018-04-21T03:10:53.835Z,62.80
2018-04-21T03:11:53.820Z,64.20
2018-04-21T03:12:53.806Z,62.70
2018-04-21T03:13:53.790Z,63.40
2018-04-21T03:14:53.776Z,64.80
2018-04-21T03:15:53.764Z,61.90
2018-04-21T03:16:53.755Z,64.30
2018-04-21T03:17:53.744Z,64.00
2018-04-21T03:18:53.882Z,64.00
2018-04-21T03:19:53.713Z,63.10
2018-04-21T03:20:53.700Z,63.60
2018-04-21T03:21:53.683Z,65.60
2018-04-21T03:22:53.668Z,65.60
2018-04-21T03:23:53.653Z,65.00
2018-04-21T03:24:53.638Z,63.70
2018-04-21T03:25:53.660Z,62.40
2018-04-21T03:26:53.623Z,65.40
2018-04-21T03:27:53.597Z,65.40
2018-04-21T03:28:53.585Z,64.80
2018-04-21T03:29:53.571Z,64.40
2018-04-21T03:30:53.557Z,66.00
2018-04-21T03:31:53.556Z,66.90
2018-04-21T03:32:53.529Z,65.60
2018-04-21T03:33:53.514Z,66.90
2018-04-21T03:34:53.501Z,66.50
2018-04-21T03:35:53.497Z,66.80
2018-04-21T03:36:53.473Z,66.80
2018-04-21T03:37:53.458Z,67.20
2018-04-21T03:38:53.453Z,70.30
2018-04-21T03:39:53.452Z,69.30
2018-04-21T03:40:53.419Z,67.00
2018-04-21T03:41:53.402Z,70.50
2018-04-21T03:42:53.388Z,71.20
2018-04-21T03:43:53.381Z,70.00
2018-04-21T03:44:53.362Z,70.50
2018-04-21T03:45:53.350Z,71.80
2018-04-21T03:46:53.332Z,72.20
2018-04-21T03:47:53.319Z,73.20
2018-04-21T03:48:53.310Z,73.60
2018-04-21T03:49:53.293Z,72.30
2018-04-21T03:50:53.283Z,73.80
2018-04-21T03:51:53.265Z,76.60
2018-04-21T03:52:53.251Z,71.90
2018-04-21T03:53:53.239Z,74.50
2018-04-21T03:54:53.301Z,75.10
2018-04-21T03:55:53.211Z,75.70
2018-04-21T03:56:53.194Z,75.10
2018-04-21T03:57:53.234Z,77.30
2018-04-21T03:58:53.168Z,77.40
2018-04-21T03:59:53.149Z,75.90
2018-04-21T04:00:53.139Z,76.20
2018-04-21T04:01:53.122Z,78.00
2018-04-21T04:02:53.114Z,77.70
2018-04-21T04:03:53.098Z,76.30
2018-04-21T04:04:53.079Z,76.70
2018-04-21T04:05:53.074Z,78.90
2018-04-21T04:06:53.061Z,78.20
2018-04-21T04:07:53.157Z,77.90
2018-04-21T04:08:53.027Z,80.20
2018-04-21T04:09:53.017Z,80.10
2018-04-21T04:10:52.996Z,79.00
2018-04-21T04:11:52.982Z,79.50
2018-04-21T04:12:52.969Z,81.80
2018-04-21T04:13:52.952Z,80.40
2018-04-21T04:14:52.939Z,84.10
2018-04-21T04:15:52.925Z,81.20
2018-04-21T04:16:52.911Z,83.60
2018-04-21T04:17:52.897Z,85.00
2018-04-21T04:18:52.893Z,83.00
2018-04-21T04:19:52.869Z,85.40
2018-04-21T04:20:52.864Z,84.60
2018-04-21T04:21:52.891Z,83.30
2018-04-21T04:22:52.826Z,86.20
2018-04-21T04:23:52.820Z,85.70
2018-04-21T04:24:52.795Z,88.50
2018-04-21T04:25:52.903Z,87.70
2018-04-21T04:26:52.768Z,87.70
2018-04-21T04:27:52.755Z,90.40
2018-04-21T04:28:52.802Z,90.40
2018-04-21T04:29:52.725Z,88.60
2018-04-21T04:30:52.713Z,87.60
2018-04-21T04:31:52.695Z,90.30
2018-04-21T04:32:52.680Z,87.10
2018-04-21T04:33:52.672Z,89.00
2018-04-21T04:34:52.654Z,87.40
2018-04-21T04:35:52.636Z,89.30
2018-04-21T04:36:52.625Z,88.60
2018-04-21T04:37:52.609Z,90.10
2018-04-21T04:38:52.593Z,87.20
2018-04-21T04:39:52.594Z,91.40
2018-04-21T04:40:52.565Z,91.50
2018-04-21T04:41:52.671Z,93.50
2018-04-21T04:42:52.536Z,91.10
2018-04-21T04:43:52.523Z,92.60
2018-04-21T04:44:52.529Z,94.80
2018-04-21T04:45:52.494Z,94.80
2018-04-21T04:46:52.480Z,95.40
2018-04-21T04:47:52.463Z,97.00
2018-04-21T04:48:52.447Z,98.30
2018-04-21T04:49:52.433Z,98.50
2018-04-21T04:50:52.427Z,101.80
2018-04-21T04:51:52.404Z,98.90
2018-04-21T04:52:52.392Z,102.90
2018-04-21T04:53:52.376Z,102.00
2018-04-21T04:54:52.380Z,103.00
2018-04-21T04:55:52.348Z,102.80
2018-04-21T04:56:52.342Z,102.00
2018-04-21T04:57:52.317Z,102.90
2018-04-21T04:58:52.307Z,101.60
2018-04-21T04:59:52.293Z,102.10
2018-04-21T05:00:52.413Z,106.00
2018-04-21T05:01:52.262Z,104.40
2018-04-21T05:02:52.244Z,104.20
2018-04-21T05:03:52.237Z,105.00
2018-04-21T05:04:52.221Z,107.40
2018-04-21T05:05:52.202Z,108.30
2018-04-21T05:06:52.187Z,104.80
2018-04-21T05:07:52.231Z,108.00
2018-04-21T05:08:52.161Z,105.60
2018-04-21T05:09:52.144Z,109.00
2018-04-21T05:10:52.131Z,106.50
2018-04-21T05:11:52.116Z,109.70
2018-04-21T05:12:52.099Z,108.80
2018-04-21T05:13:52.101Z,109.20
2018-04-21T05:14:52.071Z,111.80
2018-04-21T05:15:52.059Z,107.80
2018-04-21T05:16:52.043Z,111.80
2018-04-21T05:17:52.032Z,112.20
2018-04-21T05:18:52.017Z,112.30
2018-04-21T05:19:52.000Z,113.70
2018-04-21T05:20:51.994Z,109.80
2018-04-21T05:21:52.025Z,113.20
2018-04-21T05:22:51.982Z,114.00
2018-04-21T05:23:51.941Z,115.00
2018-04-21T05:24:51.943Z,113.20
2018-04-21T05:25:51.911Z,112.20
2018-04-21T05:26:51.899Z,115.30
2018-04-21T05:27:51.888Z,114.50
2018-04-21T05:28:51.878Z,114.80
2018-04-21T05:29:51.854Z,113.50
2018-04-21T05:30:51.898Z,114.20
2018-04-21T05:31:51.829Z,116.00
2018-04-21T05:32:51.820Z,114.10
2018-04-21T05:33:51.833Z,117.40
2018-04-21T05:34:51.784Z,112.00
2018-04-21T05:35:51.807Z,108.30
2018-04-21T05:36:51.758Z,109.00
2018-04-21T05:37:51.741Z,109.90
2018-04-21T05:38:51.732Z,107.30
2018-04-21T05:39:51.719Z,109.60
2018-04-21T05:40:51.700Z,111.50
2018-04-21T05:41:51.688Z,109.00
2018-04-21T05:42:51.687Z,109.00
2018-04-21T05:43:51.657Z,109.00
2018-04-21T05:44:51.663Z,109.40
2018-04-21T05:45:51.637Z,111.80
2018-04-21T05:46:51.635Z,107.90
2018-04-21T05:47:51.606Z,108.70
2018-04-21T05:48:51.592Z,110.60
2018-04-21T05:49:51.588Z,109.00
2018-04-21T05:50:51.568Z,113.70
2018-04-21T05:51:51.557Z,114.50
2018-04-21T05:52:51.546Z,110.40
2018-04-21T05:53:51.538Z,113.90
2018-04-21T05:54:51.519Z,111.30
2018-04-21T05:55:51.508Z,110.20
2018-04-21T05:56:51.504Z,111.80
2018-04-21T05:57:51.480Z,111.80
2018-04-21T05:58:51.475Z,107.90
2018-04-21T05:59:51.458Z,110.30
2018-04-21T06:00:51.456Z,110.40
2018-04-21T06:01:51.445Z,112.20
2018-04-21T06:02:51.427Z,110.60
2018-04-21T06:03:51.500Z,112.70
2018-04-21T06:04:51.411Z,110.80
2018-04-21T06:05:51.390Z,112.40
2018-04-21T06:06:51.381Z,106.00
2018-04-21T06:07:51.384Z,109.20
2018-04-21T06:08:51.358Z,109.70
2018-04-21T06:09:51.348Z,108.20
2018-04-21T06:10:51.338Z,115.20
2018-04-21T06:11:51.326Z,128.10
2018-04-21T06:12:51.323Z,130.50
2018-04-21T06:13:51.331Z,145.10
2018-04-21T06:14:51.296Z,135.40
2018-04-21T06:15:51.313Z,142.80
2018-04-21T06:16:51.275Z,143.40
2018-04-21T06:17:51.271Z,122.50
2018-04-21T06:18:51.252Z,152.90
2018-04-21T06:19:51.243Z,131.00
2018-04-21T06:20:51.257Z,123.20
2018-04-21T06:21:51.223Z,135.10
2018-04-21T06:22:51.217Z,127.20
2018-04-21T06:23:51.208Z,112.40
2018-04-21T06:24:51.201Z,127.30
2018-04-21T06:25:51.183Z,128.70
2018-04-21T06:26:51.173Z,130.50
2018-04-21T06:27:51.165Z,118.60
2018-04-21T06:28:51.159Z,115.90
2018-04-21T06:29:51.154Z,115.80
2018-04-21T06:30:51.136Z,120.30
2018-04-21T06:31:51.128Z,123.80
2018-04-21T06:32:51.127Z,108.60
2018-04-21T06:33:51.106Z,111.40
2018-04-21T06:34:51.111Z,106.80
2018-04-21T06:35:51.101Z,110.60
2018-04-21T06:36:51.181Z,112.00
2018-04-21T06:37:51.089Z,107.10
2018-04-21T06:38:51.065Z,115.10
2018-04-21T06:39:51.061Z,108.20
2018-04-21T06:40:51.048Z,107.50
2018-04-21T06:41:51.049Z,106.90
2018-04-21T06:42:51.036Z,115.30
2018-04-21T06:43:51.024Z,97.60
2018-04-21T06:44:51.021Z,103.60
2018-04-21T06:45:51.030Z,101.50
2018-04-21T06:46:51.002Z,96.80
2018-04-21T06:47:50.983Z,111.00
2018-04-21T06:48:50.983Z,102.50
2018-04-21T06:49:50.966Z,107.10
2018-04-21T06:50:50.962Z,94.30
2018-04-21T06:51:50.962Z,101.70
2018-04-21T06:52:50.942Z,100.60
2018-04-21T06:53:50.926Z,95.50
2018-04-21T06:54:50.922Z,95.80
2018-04-21T06:55:50.910Z,97.00
2018-04-21T06:56:50.901Z,91.30
2018-04-21T06:57:50.892Z,96.40
2018-04-21T06:58:50.881Z,91.40
2018-04-21T06:59:50.878Z,89.20
2018-04-21T07:00:50.861Z,89.10
2018-04-21T07:01:50.849Z,93.50
2018-04-21T07:02:50.849Z,87.20
2018-04-21T07:03:50.836Z,87.10
2018-04-21T07:04:50.830Z,83.70
2018-04-21T07:05:50.816Z,83.80
2018-04-21T07:06:50.801Z,85.80
2018-04-21T07:07:50.799Z,83.00
2018-04-21T07:08:50.779Z,82.20
2018-04-21T07:09:50.773Z,87.20
2018-04-21T07:10:50.757Z,88.10
2018-04-21T07:11:50.760Z,87.10
2018-04-21T07:12:50.744Z,83.30
2018-04-21T07:13:50.833Z,80.40
2018-04-21T07:14:50.721Z,81.80
2018-04-21T07:15:50.711Z,83.30
2018-04-21T07:16:50.698Z,82.30
2018-04-21T07:17:50.686Z,79.00
2018-04-21T07:18:50.686Z,83.00
2018-04-21T07:19:50.667Z,82.60
2018-04-21T07:20:50.656Z,83.70
2018-04-21T07:21:50.653Z,80.90
2018-04-21T07:22:50.639Z,81.50
2018-04-21T07:23:50.623Z,81.80
2018-04-21T07:24:50.616Z,83.60
2018-04-21T07:25:50.601Z,81.90
2018-04-21T07:26:50.592Z,81.50
2018-04-21T07:27:50.579Z,80.60
2018-04-21T07:28:50.575Z,79.20
2018-04-21T07:29:50.572Z,80.80
2018-04-21T07:30:50.564Z,78.90
2018-04-21T07:31:50.546Z,77.50
2018-04-21T07:32:50.535Z,82.00
2018-04-21T07:33:50.520Z,82.20
2018-04-21T07:34:50.509Z,80.10
2018-04-21T07:35:50.525Z,81.90
2018-04-21T07:36:50.501Z,83.90
2018-04-21T07:37:50.490Z,80.60
2018-04-21T07:38:50.474Z,81.50
2018-04-21T07:39:50.477Z,81.20
2018-04-21T07:40:50.453Z,80.80
2018-04-21T07:41:50.444Z,80.90
2018-04-21T07:42:50.452Z,84.00
2018-04-21T07:43:50.426Z,81.40
2018-04-21T07:44:50.413Z,82.90
2018-04-21T07:45:50.407Z,81.00
2018-04-21T07:46:50.413Z,79.60
2018-04-21T07:47:50.413Z,78.30
2018-04-21T07:48:50.376Z,75.30
2018-04-21T07:49:50.366Z,74.40
2018-04-21T07:50:50.358Z,75.10
2018-04-21T07:51:50.345Z,76.90
2018-04-21T07:52:50.342Z,73.90
2018-04-21T07:53:50.377Z,75.50
2018-04-21T07:54:50.326Z,74.80
2018-04-21T07:55:50.312Z,75.50
2018-04-21T07:56:50.325Z,75.40
2018-04-21T07:57:50.296Z,74.00
2018-04-21T07:58:50.292Z,73.10
2018-04-21T07:59:50.278Z,75.40
2018-04-21T08:00:50.276Z,71.80
2018-04-21T08:01:50.280Z,72.60
2018-04-21T08:02:50.252Z,74.50
2018-04-21T08:03:50.251Z,68.80
2018-04-21T08:04:50.240Z,69.30
2018-04-21T08:05:50.243Z,67.90
2018-04-21T08:06:50.234Z,69.50
2018-04-21T08:07:50.213Z,68.90
2018-04-21T08:08:50.201Z,67.60
2018-04-21T08:09:50.194Z,65.80
2018-04-21T08:10:50.181Z,66.40
2018-04-21T08:11:50.181Z,65.90
2018-04-21T08:12:50.196Z,66.60
2018-04-21T08:13:50.156Z,67.30
2018-04-21T08:14:50.146Z,66.00
2018-04-21T08:15:50.158Z,65.10
2018-04-21T08:16:50.140Z,66.30
2018-04-21T08:17:50.138Z,66.90
2018-04-21T08:18:50.114Z,63.30
2018-04-21T08:19:50.105Z,63.90
2018-04-21T08:20:50.108Z,62.70
2018-04-21T08:21:50.095Z,63.60
2018-04-21T08:22:50.081Z,61.20
2018-04-21T08:23:50.075Z,59.90
2018-04-21T08:24:50.063Z,59.60
2018-04-21T08:25:50.152Z,56.40
2018-04-21T08:26:50.050Z,56.20
2018-04-21T08:27:50.040Z,53.00
2018-04-21T08:28:50.084Z,52.70
2018-04-21T08:29:50.023Z,53.10
2018-04-21T08:30:50.018Z,54.60
2018-04-21T08:31:50.015Z,53.20
2018-04-21T08:32:49.998Z,55.40
2018-04-21T08:33:50.006Z,53.20
2018-04-21T08:34:49.979Z,52.30
2018-04-21T08:35:49.981Z,52.60
2018-04-21T08:36:49.967Z,53.20
2018-04-21T08:37:49.984Z,51.60
2018-04-21T08:38:49.946Z,50.50
2018-04-21T08:39:49.938Z,49.80
2018-04-21T08:40:49.934Z,51.30
2018-04-21T08:41:49.928Z,51.60
2018-04-21T08:42:49.912Z,48.50
2018-04-21T08:43:49.901Z,47.90
2018-04-21T08:44:49.896Z,48.30
2018-04-21T08:45:49.898Z,48.20
2018-04-21T08:46:49.986Z,50.20
2018-04-21T08:47:49.867Z,50.20
2018-04-21T08:48:49.858Z,49.40
2018-04-21T08:49:49.845Z,49.00
2018-04-21T08:50:49.837Z,45.70
2018-04-21T08:51:49.831Z,47.00
2018-04-21T08:52:49.828Z,47.60
2018-04-21T08:53:49.823Z,46.80
2018-04-21T08:54:49.805Z,45.30
2018-04-21T08:55:49.891Z,46.90
2018-04-21T08:56:49.785Z,47.40
2018-04-21T08:57:49.780Z,47.20
2018-04-21T08:58:49.832Z,45.80
2018-04-21T08:59:49.764Z,45.70
2018-04-21T09:00:49.758Z,43.80
2018-04-21T09:01:49.746Z,43.70
2018-04-21T09:02:49.744Z,42.70
2018-04-21T09:03:49.725Z,44.90
2018-04-21T09:04:49.717Z,43.50
2018-04-21T09:05:49.715Z,43.40
2018-04-21T09:06:49.709Z,42.90
2018-04-21T09:07:49.690Z,41.10
2018-04-21T09:08:49.791Z,39.30
2018-04-21T09:09:49.680Z,41.50
2018-04-21T09:10:49.663Z,41.50
2018-04-21T09:11:49.657Z,41.90
2018-04-21T09:12:49.647Z,40.00
2018-04-21T09:13:49.639Z,41.20
2018-04-21T09:14:49.631Z,42.20
2018-04-21T09:15:49.644Z,40.80
2018-04-21T09:16:49.614Z,42.00
2018-04-21T09:17:49.610Z,40.40
2018-04-21T09:18:49.597Z,42.70
2018-04-21T09:19:49.596Z,41.90
2018-04-21T09:20:49.583Z,40.50
2018-04-21T09:21:49.589Z,39.40
2018-04-21T09:22:49.567Z,41.20
2018-04-21T09:23:49.556Z,42.40
2018-04-21T09:24:49.552Z,42.70
2018-04-21T09:25:49.551Z,42.60
2018-04-21T09:26:49.532Z,42.10
2018-04-21T09:27:49.525Z,41.00
2018-04-21T09:28:49.516Z,40.90
2018-04-21T09:29:49.517Z,41.40
2018-04-21T09:30:49.502Z,40.80
2018-04-21T09:31:49.495Z,41.40
2018-04-21T09:32:49.495Z,40.00
2018-04-21T09:33:49.494Z,39.60
2018-04-21T09:34:49.469Z,40.50
2018-04-21T09:35:49.465Z,41.50
2018-04-21T09:36:49.459Z,39.30
2018-04-21T09:37:49.454Z,39.70
2018-04-21T09:38:49.456Z,41.30
2018-04-21T09:39:49.441Z,39.70
2018-04-21T09:40:49.445Z,38.20
2018-04-21T09:41:49.453Z,38.40
2018-04-21T09:42:49.428Z,38.20
2018-04-21T09:43:49.428Z,41.80
2018-04-21T09:44:49.430Z,39.30
2018-04-21T09:45:49.427Z,38.20
2018-04-21T09:46:49.419Z,39.30
2018-04-21T09:47:49.426Z,41.20
2018-04-21T09:48:49.423Z,39.60
2018-04-21T09:49:49.420Z,36.50
2018-04-21T09:50:49.410Z,36.20
2018-04-21T09:51:49.411Z,36.50
2018-04-21T09:52:49.408Z,35.70
2018-04-21T09:53:49.415Z,36.00
2018-04-21T09:54:49.416Z,37.40
2018-04-21T09:55:49.411Z,35.00
2018-04-21T09:56:49.411Z,36.20
2018-04-21T09:57:49.405Z,36.60
2018-04-21T09:58:49.410Z,35.80
2018-04-21T09:59:49.512Z,37.00
2018-04-21T10:00:49.416Z,37.20
2018-04-21T10:01:49.409Z,34.90
2018-04-21T10:02:49.417Z,37.10
2018-04-21T10:03:49.421Z,36.50
2018-04-21T10:04:49.422Z,37.40
2018-04-21T10:05:49.418Z,37.40
2018-04-21T10:06:49.421Z,36.10
2018-04-21T10:07:49.427Z,34.10
2018-04-21T10:08:49.421Z,33.00
2018-04-21T10:09:49.428Z,35.20
2018-04-21T10:10:49.427Z,34.10
2018-04-21T10:11:49.436Z,34.30
2018-04-21T10:12:49.439Z,33.90
2018-04-21T10:13:49.436Z,32.90
2018-04-21T10:14:49.472Z,33.50
2018-04-21T10:15:49.446Z,32.90
2018-04-21T10:16:49.441Z,33.90
2018-04-21T10:17:49.445Z,34.00
2018-04-21T10:18:49.445Z,32.40
2018-04-21T10:19:49.450Z,31.90
2018-04-21T10:20:49.457Z,32.10
2018-04-21T10:21:49.465Z,30.70
2018-04-21T10:22:49.473Z,30.70
2018-04-21T10:23:49.465Z,30.30
2018-04-21T10:24:49.506Z,30.40
2018-04-21T10:25:49.467Z,30.90
2018-04-21T10:26:49.476Z,31.30
2018-04-21T10:27:49.482Z,30.20
2018-04-21T10:28:49.480Z,30.30
2018-04-21T10:29:49.486Z,29.40
2018-04-21T10:30:49.496Z,30.60
2018-04-21T10:31:49.495Z,30.80
2018-04-21T10:32:49.498Z,28.80
2018-04-21T10:33:49.495Z,31.30
2018-04-21T10:34:49.506Z,31.30
2018-04-21T10:35:49.508Z,32.20
2018-04-21T10:36:49.512Z,31.00
2018-04-21T10:37:49.514Z,30.30
2018-04-21T10:38:49.585Z,29.30
2018-04-21T10:39:49.523Z,29.40
2018-04-21T10:40:49.531Z,29.10
2018-04-21T10:41:49.531Z,27.30
2018-04-21T10:42:49.532Z,26.20
2018-04-21T10:43:49.536Z,27.00
2018-04-21T10:44:49.543Z,25.10
2018-04-21T10:45:49.598Z,24.90
2018-04-21T10:46:49.548Z,24.60
2018-04-21T10:47:49.554Z,25.30
2018-04-21T10:48:49.556Z,24.90
2018-04-21T10:49:49.570Z,24.90
2018-04-21T10:50:49.717Z,23.90
2018-04-21T10:51:49.577Z,25.60
2018-04-21T10:52:49.581Z,24.90
2018-04-21T10:53:49.585Z,25.60
2018-04-21T10:54:49.585Z,25.00
2018-04-21T10:55:49.588Z,24.30
2018-04-21T10:56:49.590Z,24.70
2018-04-21T10:57:49.609Z,24.90
2018-04-21T10:58:49.609Z,24.10
2018-04-21T10:59:49.616Z,26.00
2018-04-21T11:00:49.615Z,24.60
2018-04-21T11:01:49.620Z,23.10
2018-04-21T11:02:49.637Z,22.50
2018-04-21T11:03:49.662Z,20.30
2018-04-21T11:04:49.626Z,21.40
2018-04-21T11:05:49.625Z,21.90
2018-04-21T11:06:49.635Z,21.50
2018-04-21T11:07:49.664Z,21.30
2018-04-21T11:08:49.654Z,21.10
2018-04-21T11:09:49.716Z,20.40
2018-04-21T11:10:49.651Z,21.00
2018-04-21T11:11:49.651Z,20.20
2018-04-21T11:12:49.654Z,19.10
2018-04-21T11:13:49.678Z,20.20
2018-04-21T11:14:49.679Z,18.90
2018-04-21T11:15:49.669Z,19.50
2018-04-21T11:16:49.681Z,18.40
2018-04-21T11:17:49.687Z,18.60
2018-04-21T11:18:49.689Z,17.80
2018-04-21T11:19:49.698Z,16.90
2018-04-21T11:20:49.691Z,18.00
2018-04-21T11:21:49.706Z,18.00
2018-04-21T11:22:49.759Z,17.30
2018-04-21T11:23:49.707Z,17.60
2018-04-21T11:24:49.772Z,16.80
2018-04-21T11:25:49.711Z,16.90
2018-04-21T11:26:49.724Z,16.90
2018-04-21T11:27:49.721Z,16.70
2018-04-21T11:28:49.728Z,17.70
2018-04-21T11:29:49.732Z,18.00
2018-04-21T11:30:49.755Z,16.60
2018-04-21T11:31:49.751Z,16.20
2018-04-21T11:32:49.749Z,16.10
2018-04-21T11:33:49.752Z,17.80
2018-04-21T11:34:49.769Z,17.40
2018-04-21T11:35:49.758Z,17.50
2018-04-21T11:36:49.770Z,16.60
2018-04-21T11:37:49.771Z,16.60
2018-04-21T11:38:49.776Z,15.50
2018-04-21T11:39:49.772Z,17.30
2018-04-21T11:40:49.777Z,16.10
2018-04-21T11:41:49.777Z,15.60
2018-04-21T11:42:49.786Z,16.20
2018-04-21T11:43:49.786Z,16.00
2018-04-21T11:44:49.791Z,15.20
2018-04-21T11:45:49.790Z,15.40
2018-04-21T11:46:49.795Z,14.70
2018-04-21T11:47:49.805Z,14.00
2018-04-21T11:48:49.813Z,13.40
2018-04-21T11:49:49.816Z,14.70
2018-04-21T11:50:49.805Z,13.80
2018-04-21T11:51:49.816Z,14.70
2018-04-21T11:52:49.832Z,14.50
2018-04-21T11:53:49.807Z,14.20
2018-04-21T11:54:49.808Z,14.70
2018-04-21T11:55:49.816Z,13.50
2018-04-21T11:56:49.810Z,13.90
2018-04-21T11:57:49.808Z,13.00
2018-04-21T11:58:49.808Z,13.10
2018-04-21T11:59:49.815Z,13.50
2018-04-21T12:00:49.821Z,13.30
2018-04-21T12:01:49.932Z,12.60
2018-04-21T12:02:49.821Z,12.60
2018-04-21T12:03:49.816Z,12.70
2018-04-21T12:04:49.813Z,13.80
2018-04-21T12:05:49.805Z,13.70
2018-04-21T12:06:49.805Z,13.90
2018-04-21T12:07:49.814Z,13.10
2018-04-21T12:08:49.818Z,12.70
2018-04-21T12:09:49.798Z,14.00
2018-04-21T12:10:49.915Z,14.10
2018-04-21T12:11:49.793Z,13.50
2018-04-21T12:12:49.792Z,14.60
2018-04-21T12:13:49.800Z,14.40
2018-04-21T12:14:49.792Z,14.80
2018-04-21T12:15:49.791Z,15.20
2018-04-21T12:16:49.783Z,15.10
2018-04-21T12:17:49.773Z,14.50
2018-04-21T12:18:49.766Z,13.80
2018-04-21T12:19:49.780Z,14.40
2018-04-21T12:20:49.901Z,14.50
2018-04-21T12:21:49.759Z,13.50
2018-04-21T12:22:49.756Z,13.80
2018-04-21T12:23:49.747Z,12.70
2018-04-21T12:24:49.757Z,13.20
2018-04-21T12:25:49.736Z,13.30
2018-04-21T12:26:49.732Z,13.70
2018-04-21T12:27:49.726Z,13.90
2018-04-21T12:28:49.740Z,13.10
2018-04-21T12:29:49.724Z,13.20
2018-04-21T12:30:49.712Z,14.00
2018-04-21T12:31:49.702Z,13.90
2018-04-21T12:32:49.703Z,13.70
2018-04-21T12:33:49.693Z,14.00
2018-04-21T12:34:49.684Z,13.80
2018-04-21T12:35:49.681Z,13.80
2018-04-21T12:36:49.683Z,13.50
2018-04-21T12:37:49.677Z,13.40
2018-04-21T12:38:49.868Z,12.80
2018-04-21T12:39:49.664Z,12.90
2018-04-21T12:40:49.649Z,12.40
2018-04-21T12:41:49.690Z,12.20
2018-04-21T12:42:49.639Z,11.90
2018-04-21T12:43:49.641Z,12.40
2018-04-21T12:44:49.623Z,13.00
2018-04-21T12:45:49.646Z,13.60
2018-04-21T12:46:49.607Z,12.20
2018-04-21T12:47:49.609Z,12.90
2018-04-21T12:48:49.599Z,12.70